sensor_id;sensor_type;location;lat;lon;timestamp;P1;durP1;ratioP1;P2;durP2;ratioP2
16866;SDS011;8550;52.596;13.320;2022-09-28T00:03:20;1.77;;;0.50;;
16866;SDS011;8550;52.596;13.320;2022-09-28T00:08:22;2.75;;;0.93;;
16866;SDS011;8550;52.596;13.320;2022-09-28T00:13:23;2.13;;;0.60;;
16866;SDS011;8550;52.596;13.320;2022-09-28T00:18:27;2.77;;;1.20;;
16866;SDS011;8550;52.596;13.320;2022-09-28T00:23:28;2.95;;;0.70;;
16866;SDS011;8550;52.596;13.320;2022-09-28T00:28:30;2.25;;;0.77;;
16866;SDS011;8550;52.596;13.320;2022-09-28T00:33:33;2.27;;;0.73;;
16866;SDS011;8550;52.596;13.320;2022-09-28T00:38:35;3.77;;;0.80;;
16866;SDS011;8550;52.596;13.320;2022-09-28T00:43:39;3.10;;;0.90;;
16866;SDS011;8550;52.596;13.320;2022-09-28T00:48:44;2.45;;;0.80;;
16866;SDS011;8550;52.596;13.320;2022-09-28T00:53:51;4.33;;;1.07;;
16866;SDS011;8550;52.596;13.320;2022-09-28T00:58:55;2.83;;;0.88;;
16866;SDS011;8550;52.596;13.320;2022-09-28T01:04:00;2.83;;;1.05;;
16866;SDS011;8550;52.596;13.320;2022-09-28T01:09:04;2.73;;;1.10;;
16866;SDS011;8550;52.596;13.320;2022-09-28T01:14:08;3.67;;;1.35;;
16866;SDS011;8550;52.596;13.320;2022-09-28T01:19:28;4.63;;;1.15;;
16866;SDS011;8550;52.596;13.320;2022-09-28T01:24:51;3.13;;;1.20;;
16866;SDS011;8550;52.596;13.320;2022-09-28T01:30:01;3.57;;;1.30;;
16866;SDS011;8550;52.596;13.320;2022-09-28T01:35:07;4.40;;;1.30;;
16866;SDS011;8550;52.596;13.320;2022-09-28T01:40:14;4.60;;;1.48;;
16866;SDS011;8550;52.596;13.320;2022-09-28T01:45:19;3.40;;;1.00;;
16866;SDS011;8550;52.596;13.320;2022-09-28T01:50:24;3.28;;;1.30;;
16866;SDS011;8550;52.596;13.320;2022-09-28T01:55:29;3.22;;;1.10;;
16866;SDS011;8550;52.596;13.320;2022-09-28T02:00:34;4.47;;;1.60;;
16866;SDS011;8550;52.596;13.320;2022-09-28T02:05:40;3.85;;;1.42;;
16866;SDS011;8550;52.596;13.320;2022-09-28T02:10:47;2.75;;;0.93;;
16866;SDS011;8550;52.596;13.320;2022-09-28T02:15:55;3.23;;;0.90;;
16866;SDS011;8550;52.596;13.320;2022-09-28T02:21:04;4.70;;;1.10;;
16866;SDS011;8550;52.596;13.320;2022-09-28T02:26:11;2.88;;;1.13;;
16866;SDS011;8550;52.596;13.320;2022-09-28T02:31:18;2.60;;;1.05;;
16866;SDS011;8550;52.596;13.320;2022-09-28T02:36:20;3.00;;;1.07;;
16866;SDS011;8550;52.596;13.320;2022-09-28T02:41:26;3.88;;;1.40;;
16866;SDS011;8550;52.596;13.320;2022-09-28T02:46:44;2.90;;;0.90;;
16866;SDS011;8550;52.596;13.320;2022-09-28T02:51:54;3.20;;;1.23;;
16866;SDS011;8550;52.596;13.320;2022-09-28T02:57:17;2.83;;;0.80;;
16866;SDS011;8550;52.596;13.320;2022-09-28T03:02:32;3.00;;;1.15;;
16866;SDS011;8550;52.596;13.320;2022-09-28T03:07:38;4.10;;;1.37;;
16866;SDS011;8550;52.596;13.320;2022-09-28T03:12:44;5.17;;;1.83;;
16866;SDS011;8550;52.596;13.320;2022-09-28T03:17:49;3.80;;;1.40;;
16866;SDS011;8550;52.596;13.320;2022-09-28T03:22:51;4.32;;;1.77;;
16866;SDS011;8550;52.596;13.320;2022-09-28T03:27:53;5.33;;;1.40;;
16866;SDS011;8550;52.596;13.320;2022-09-28T03:32:59;6.40;;;1.50;;
16866;SDS011;8550;52.596;13.320;2022-09-28T03:38:02;3.80;;;1.27;;
16866;SDS011;8550;52.596;13.320;2022-09-28T03:43:03;4.43;;;2.00;;
16866;SDS011;8550;52.596;13.320;2022-09-28T03:48:07;4.25;;;1.58;;
16866;SDS011;8550;52.596;13.320;2022-09-28T03:53:09;4.22;;;1.60;;
16866;SDS011;8550;52.596;13.320;2022-09-28T03:58:10;5.23;;;2.03;;
16866;SDS011;8550;52.596;13.320;2022-09-28T04:03:14;3.60;;;1.50;;
16866;SDS011;8550;52.596;13.320;2022-09-28T04:08:16;4.72;;;2.05;;
16866;SDS011;8550;52.596;13.320;2022-09-28T04:13:18;5.38;;;1.70;;
16866;SDS011;8550;52.596;13.320;2022-09-28T04:18:21;5.17;;;1.97;;
16866;SDS011;8550;52.596;13.320;2022-09-28T04:23:23;4.85;;;2.15;;
16866;SDS011;8550;52.596;13.320;2022-09-28T04:28:25;4.82;;;1.70;;
16866;SDS011;8550;52.596;13.320;2022-09-28T04:33:46;5.43;;;2.10;;
16866;SDS011;8550;52.596;13.320;2022-09-28T04:38:48;4.78;;;1.80;;
16866;SDS011;8550;52.596;13.320;2022-09-28T04:43:49;4.75;;;1.90;;
16866;SDS011;8550;52.596;13.320;2022-09-28T04:48:52;5.97;;;2.30;;
16866;SDS011;8550;52.596;13.320;2022-09-28T04:53:54;5.83;;;2.13;;
16866;SDS011;8550;52.596;13.320;2022-09-28T04:58:56;7.85;;;2.20;;
16866;SDS011;8550;52.596;13.320;2022-09-28T05:03:59;5.82;;;2.13;;
16866;SDS011;8550;52.596;13.320;2022-09-28T05:09:01;6.43;;;2.63;;
16866;SDS011;8550;52.596;13.320;2022-09-28T05:14:03;4.72;;;2.05;;
16866;SDS011;8550;52.596;13.320;2022-09-28T05:19:07;9.60;;;3.85;;
16866;SDS011;8550;52.596;13.320;2022-09-28T05:24:10;16.33;;;7.57;;
16866;SDS011;8550;52.596;13.320;2022-09-28T05:29:12;7.53;;;3.40;;
16866;SDS011;8550;52.596;13.320;2022-09-28T05:34:15;6.07;;;2.35;;
16866;SDS011;8550;52.596;13.320;2022-09-28T05:39:17;6.60;;;2.40;;
16866;SDS011;8550;52.596;13.320;2022-09-28T05:44:19;5.83;;;2.53;;
16866;SDS011;8550;52.596;13.320;2022-09-28T05:49:22;5.93;;;2.22;;
16866;SDS011;8550;52.596;13.320;2022-09-28T05:54:24;6.88;;;2.67;;
16866;SDS011;8550;52.596;13.320;2022-09-28T05:59:26;5.57;;;2.20;;
16866;SDS011;8550;52.596;13.320;2022-09-28T06:04:30;6.05;;;2.45;;
16866;SDS011;8550;52.596;13.320;2022-09-28T06:09:32;6.93;;;2.30;;
16866;SDS011;8550;52.596;13.320;2022-09-28T06:14:34;6.33;;;2.47;;
16866;SDS011;8550;52.596;13.320;2022-09-28T06:19:37;8.80;;;3.75;;
16866;SDS011;8550;52.596;13.320;2022-09-28T06:24:39;6.90;;;2.58;;
16866;SDS011;8550;52.596;13.320;2022-09-28T06:29:41;6.50;;;2.57;;
16866;SDS011;8550;52.596;13.320;2022-09-28T06:34:44;6.23;;;2.73;;
16866;SDS011;8550;52.596;13.320;2022-09-28T06:39:46;6.28;;;2.83;;
16866;SDS011;8550;52.596;13.320;2022-09-28T06:44:47;6.93;;;2.42;;
16866;SDS011;8550;52.596;13.320;2022-09-28T06:49:50;5.53;;;2.17;;
16866;SDS011;8550;52.596;13.320;2022-09-28T06:54:54;6.78;;;2.88;;
16866;SDS011;8550;52.596;13.320;2022-09-28T06:59:56;9.50;;;3.05;;
16866;SDS011;8550;52.596;13.320;2022-09-28T07:04:59;6.90;;;3.33;;
16866;SDS011;8550;52.596;13.320;2022-09-28T07:10:02;9.27;;;3.35;;
16866;SDS011;8550;52.596;13.320;2022-09-28T07:15:04;7.78;;;3.05;;
16866;SDS011;8550;52.596;13.320;2022-09-28T07:20:09;6.87;;;2.93;;
16866;SDS011;8550;52.596;13.320;2022-09-28T07:25:11;8.13;;;3.50;;
16866;SDS011;8550;52.596;13.320;2022-09-28T07:30:13;9.40;;;3.35;;
16866;SDS011;8550;52.596;13.320;2022-09-28T07:35:16;9.63;;;3.63;;
16866;SDS011;8550;52.596;13.320;2022-09-28T07:40:18;8.00;;;3.43;;
16866;SDS011;8550;52.596;13.320;2022-09-28T07:45:37;9.10;;;4.03;;
16866;SDS011;8550;52.596;13.320;2022-09-28T07:50:41;8.18;;;2.95;;
16866;SDS011;8550;52.596;13.320;2022-09-28T07:55:43;7.47;;;2.97;;
16866;SDS011;8550;52.596;13.320;2022-09-28T08:00:51;8.25;;;3.38;;
16866;SDS011;8550;52.596;13.320;2022-09-28T08:05:57;8.85;;;3.25;;
16866;SDS011;8550;52.596;13.320;2022-09-28T08:10:59;10.33;;;3.80;;
16866;SDS011;8550;52.596;13.320;2022-09-28T08:16:02;8.27;;;4.30;;
16866;SDS011;8550;52.596;13.320;2022-09-28T08:21:05;7.95;;;3.63;;
16866;SDS011;8550;52.596;13.320;2022-09-28T08:26:24;8.63;;;4.00;;
16866;SDS011;8550;52.596;13.320;2022-09-28T08:31:27;9.00;;;4.13;;
16866;SDS011;8550;52.596;13.320;2022-09-28T08:36:31;7.93;;;3.38;;
16866;SDS011;8550;52.596;13.320;2022-09-28T08:41:34;10.02;;;3.40;;
16866;SDS011;8550;52.596;13.320;2022-09-28T08:46:47;9.50;;;3.53;;
16866;SDS011;8550;52.596;13.320;2022-09-28T08:51:55;7.53;;;3.38;;
16866;SDS011;8550;52.596;13.320;2022-09-28T08:57:00;6.97;;;2.90;;
16866;SDS011;8550;52.596;13.320;2022-09-28T09:02:08;7.40;;;3.20;;
16866;SDS011;8550;52.596;13.320;2022-09-28T09:07:29;9.53;;;3.03;;
16866;SDS011;8550;52.596;13.320;2022-09-28T09:12:51;6.00;;;2.80;;
16866;SDS011;8550;52.596;13.320;2022-09-28T09:18:06;7.80;;;3.13;;
16866;SDS011;8550;52.596;13.320;2022-09-28T09:23:20;8.00;;;3.53;;
16866;SDS011;8550;52.596;13.320;2022-09-28T09:34:19;8.23;;;3.03;;
16866;SDS011;8550;52.596;13.320;2022-09-28T09:39:39;7.63;;;2.97;;
16866;SDS011;8550;52.596;13.320;2022-09-28T09:44:54;7.20;;;3.13;;
16866;SDS011;8550;52.596;13.320;2022-09-28T09:50:07;6.78;;;3.30;;
16866;SDS011;8550;52.596;13.320;2022-09-28T09:55:21;7.07;;;3.13;;
16866;SDS011;8550;52.596;13.320;2022-09-28T10:00:28;6.07;;;2.73;;
16866;SDS011;8550;52.596;13.320;2022-09-28T10:05:30;7.32;;;3.30;;
16866;SDS011;8550;52.596;13.320;2022-09-28T10:10:36;5.47;;;2.63;;
16866;SDS011;8550;52.596;13.320;2022-09-28T10:15:43;6.57;;;2.17;;
16866;SDS011;8550;52.596;13.320;2022-09-28T10:20:47;3.50;;;1.70;;
16866;SDS011;8550;52.596;13.320;2022-09-28T10:25:51;4.82;;;2.20;;
16866;SDS011;8550;52.596;13.320;2022-09-28T10:30:57;4.57;;;1.90;;
16866;SDS011;8550;52.596;13.320;2022-09-28T10:35:59;3.50;;;1.60;;
16866;SDS011;8550;52.596;13.320;2022-09-28T10:41:07;3.75;;;1.60;;
16866;SDS011;8550;52.596;13.320;2022-09-28T10:46:11;3.77;;;1.67;;
16866;SDS011;8550;52.596;13.320;2022-09-28T10:51:15;3.43;;;1.27;;
16866;SDS011;8550;52.596;13.320;2022-09-28T10:56:19;5.00;;;1.40;;
16866;SDS011;8550;52.596;13.320;2022-09-28T11:01:23;5.38;;;1.30;;
16866;SDS011;8550;52.596;13.320;2022-09-28T11:06:31;3.23;;;1.03;;
16866;SDS011;8550;52.596;13.320;2022-09-28T11:11:40;5.63;;;1.40;;
16866;SDS011;8550;52.596;13.320;2022-09-28T11:16:43;2.30;;;0.70;;
16866;SDS011;8550;52.596;13.320;2022-09-28T11:21:44;3.07;;;0.90;;
16866;SDS011;8550;52.596;13.320;2022-09-28T11:26:48;1.95;;;0.57;;
16866;SDS011;8550;52.596;13.320;2022-09-28T11:31:52;1.50;;;0.70;;
16866;SDS011;8550;52.596;13.320;2022-09-28T11:37:08;3.93;;;1.60;;
16866;SDS011;8550;52.596;13.320;2022-09-28T11:42:30;3.90;;;1.20;;
16866;SDS011;8550;52.596;13.320;2022-09-28T11:47:46;5.50;;;0.70;;
16866;SDS011;8550;52.596;13.320;2022-09-28T11:52:54;1.80;;;0.70;;
16866;SDS011;8550;52.596;13.320;2022-09-28T11:58:02;1.77;;;0.63;;
16866;SDS011;8550;52.596;13.320;2022-09-28T12:03:10;2.25;;;0.93;;
16866;SDS011;8550;52.596;13.320;2022-09-28T12:08:17;2.90;;;0.65;;
16866;SDS011;8550;52.596;13.320;2022-09-28T12:13:26;2.20;;;0.70;;
16866;SDS011;8550;52.596;13.320;2022-09-28T12:18:32;2.05;;;0.68;;
16866;SDS011;8550;52.596;13.320;2022-09-28T12:23:42;2.38;;;0.80;;
16866;SDS011;8550;52.596;13.320;2022-09-28T12:28:46;1.67;;;0.57;;
16866;SDS011;8550;52.596;13.320;2022-09-28T12:33:50;4.30;;;0.40;;
16866;SDS011;8550;52.596;13.320;2022-09-28T12:38:57;1.63;;;0.63;;
16866;SDS011;8550;52.596;13.320;2022-09-28T12:44:12;1.30;;;0.50;;
16866;SDS011;8550;52.596;13.320;2022-09-28T12:49:36;1.30;;;0.40;;
16866;SDS011;8550;52.596;13.320;2022-09-28T13:00:41;1.00;;;0.43;;
16866;SDS011;8550;52.596;13.320;2022-09-28T13:06:04;2.43;;;0.63;;
16866;SDS011;8550;52.596;13.320;2022-09-28T13:11:26;1.95;;;0.45;;
16866;SDS011;8550;52.596;13.320;2022-09-28T13:16:35;1.00;;;0.43;;
16866;SDS011;8550;52.596;13.320;2022-09-28T13:21:45;1.20;;;0.50;;
16866;SDS011;8550;52.596;13.320;2022-09-28T13:26:54;1.30;;;0.50;;
16866;SDS011;8550;52.596;13.320;2022-09-28T13:32:00;5.88;;;0.68;;
16866;SDS011;8550;52.596;13.320;2022-09-28T13:37:08;1.77;;;0.60;;
16866;SDS011;8550;52.596;13.320;2022-09-28T13:42:24;1.37;;;0.37;;
16866;SDS011;8550;52.596;13.320;2022-09-28T13:47:43;1.25;;;0.55;;
16866;SDS011;8550;52.596;13.320;2022-09-28T13:52:56;1.45;;;0.43;;
16866;SDS011;8550;52.596;13.320;2022-09-28T13:58:13;1.77;;;0.53;;
16866;SDS011;8550;52.596;13.320;2022-09-28T14:03:25;1.40;;;0.47;;
16866;SDS011;8550;52.596;13.320;2022-09-28T14:08:43;1.23;;;0.40;;
16866;SDS011;8550;52.596;13.320;2022-09-28T14:13:56;2.20;;;0.80;;
16866;SDS011;8550;52.596;13.320;2022-09-28T14:19:02;1.67;;;0.70;;
16866;SDS011;8550;52.596;13.320;2022-09-28T14:24:14;1.20;;;0.63;;
16866;SDS011;8550;52.596;13.320;2022-09-28T14:29:25;1.27;;;0.70;;
16866;SDS011;8550;52.596;13.320;2022-09-28T14:34:31;1.30;;;0.60;;
16866;SDS011;8550;52.596;13.320;2022-09-28T14:39:35;2.45;;;0.70;;
16866;SDS011;8550;52.596;13.320;2022-09-28T14:50:22;1.70;;;0.60;;
16866;SDS011;8550;52.596;13.320;2022-09-28T14:55:26;1.50;;;0.63;;
16866;SDS011;8550;52.596;13.320;2022-09-28T15:00:31;1.08;;;0.55;;
16866;SDS011;8550;52.596;13.320;2022-09-28T15:05:40;2.10;;;0.83;;
16866;SDS011;8550;52.596;13.320;2022-09-28T15:10:46;1.37;;;0.50;;
16866;SDS011;8550;52.596;13.320;2022-09-28T15:15:50;4.72;;;1.63;;
16866;SDS011;8550;52.596;13.320;2022-09-28T15:20:55;2.35;;;0.70;;
16866;SDS011;8550;52.596;13.320;2022-09-28T15:25:58;2.57;;;0.63;;
16866;SDS011;8550;52.596;13.320;2022-09-28T15:31:00;3.05;;;0.95;;
16866;SDS011;8550;52.596;13.320;2022-09-28T15:36:05;1.65;;;0.60;;
16866;SDS011;8550;52.596;13.320;2022-09-28T15:41:08;1.23;;;0.50;;
16866;SDS011;8550;52.596;13.320;2022-09-28T15:46:11;2.67;;;0.65;;
16866;SDS011;8550;52.596;13.320;2022-09-28T15:51:16;1.50;;;0.68;;
16866;SDS011;8550;52.596;13.320;2022-09-28T15:56:20;4.00;;;0.70;;
16866;SDS011;8550;52.596;13.320;2022-09-28T16:01:25;3.30;;;0.87;;
16866;SDS011;8550;52.596;13.320;2022-09-28T16:06:36;1.75;;;0.70;;
16866;SDS011;8550;52.596;13.320;2022-09-28T16:11:38;4.25;;;1.35;;
16866;SDS011;8550;52.596;13.320;2022-09-28T16:16:42;2.93;;;1.07;;
16866;SDS011;8550;52.596;13.320;2022-09-28T16:21:49;3.47;;;1.30;;
16866;SDS011;8550;52.596;13.320;2022-09-28T16:26:56;3.65;;;1.38;;
16866;SDS011;8550;52.596;13.320;2022-09-28T16:37:35;3.95;;;1.48;;
16866;SDS011;8550;52.596;13.320;2022-09-28T16:42:39;4.50;;;1.27;;
16866;SDS011;8550;52.596;13.320;2022-09-28T16:47:44;3.20;;;1.30;;
16866;SDS011;8550;52.596;13.320;2022-09-28T16:52:47;2.70;;;1.17;;
16866;SDS011;8550;52.596;13.320;2022-09-28T16:58:07;4.47;;;1.77;;
16866;SDS011;8550;52.596;13.320;2022-09-28T17:03:13;5.15;;;1.98;;
16866;SDS011;8550;52.596;13.320;2022-09-28T17:08:19;4.63;;;1.90;;
16866;SDS011;8550;52.596;13.320;2022-09-28T17:13:23;6.05;;;1.92;;
16866;SDS011;8550;52.596;13.320;2022-09-28T17:18:30;3.15;;;1.20;;
16866;SDS011;8550;52.596;13.320;2022-09-28T17:23:33;3.43;;;1.40;;
16866;SDS011;8550;52.596;13.320;2022-09-28T17:28:35;4.00;;;1.10;;
16866;SDS011;8550;52.596;13.320;2022-09-28T17:33:37;2.38;;;0.70;;
16866;SDS011;8550;52.596;13.320;2022-09-28T17:38:40;2.37;;;0.90;;
16866;SDS011;8550;52.596;13.320;2022-09-28T17:43:42;3.43;;;1.33;;
16866;SDS011;8550;52.596;13.320;2022-09-28T17:48:44;2.50;;;0.90;;
16866;SDS011;8550;52.596;13.320;2022-09-28T17:53:47;3.10;;;1.20;;
16866;SDS011;8550;52.596;13.320;2022-09-28T17:58:49;3.47;;;1.63;;
16866;SDS011;8550;52.596;13.320;2022-09-28T18:03:52;2.35;;;1.08;;
16866;SDS011;8550;52.596;13.320;2022-09-28T18:08:55;2.55;;;0.93;;
16866;SDS011;8550;52.596;13.320;2022-09-28T18:13:56;3.03;;;1.10;;
16866;SDS011;8550;52.596;13.320;2022-09-28T18:18:58;4.28;;;1.45;;
16866;SDS011;8550;52.596;13.320;2022-09-28T18:24:01;12.52;;;8.27;;
16866;SDS011;8550;52.596;13.320;2022-09-28T18:29:03;5.43;;;2.73;;
16866;SDS011;8550;52.596;13.320;2022-09-28T18:34:05;5.03;;;1.60;;
16866;SDS011;8550;52.596;13.320;2022-09-28T18:39:08;3.88;;;1.73;;
16866;SDS011;8550;52.596;13.320;2022-09-28T18:44:10;4.45;;;1.10;;
16866;SDS011;8550;52.596;13.320;2022-09-28T18:49:12;4.13;;;1.80;;
16866;SDS011;8550;52.596;13.320;2022-09-28T18:54:15;7.15;;;2.00;;
16866;SDS011;8550;52.596;13.320;2022-09-28T18:59:17;5.72;;;2.28;;
16866;SDS011;8550;52.596;13.320;2022-09-28T19:04:18;5.70;;;2.50;;
16866;SDS011;8550;52.596;13.320;2022-09-28T19:09:22;5.63;;;1.52;;
16866;SDS011;8550;52.596;13.320;2022-09-28T19:14:25;7.60;;;3.33;;
16866;SDS011;8550;52.596;13.320;2022-09-28T19:19:27;4.60;;;2.07;;
16866;SDS011;8550;52.596;13.320;2022-09-28T19:24:30;4.73;;;1.97;;
16866;SDS011;8550;52.596;13.320;2022-09-28T19:29:32;4.32;;;2.13;;
16866;SDS011;8550;52.596;13.320;2022-09-28T19:34:33;5.88;;;2.28;;
16866;SDS011;8550;52.596;13.320;2022-09-28T19:39:37;5.47;;;2.30;;
16866;SDS011;8550;52.596;13.320;2022-09-28T19:44:38;7.07;;;2.22;;
16866;SDS011;8550;52.596;13.320;2022-09-28T19:49:40;5.07;;;2.40;;
16866;SDS011;8550;52.596;13.320;2022-09-28T19:54:45;6.83;;;2.30;;
16866;SDS011;8550;52.596;13.320;2022-09-28T19:59:51;5.63;;;2.65;;
16866;SDS011;8550;52.596;13.320;2022-09-28T20:04:53;6.15;;;2.83;;
16866;SDS011;8550;52.596;13.320;2022-09-28T20:09:56;4.97;;;2.77;;
16866;SDS011;8550;52.596;13.320;2022-09-28T20:14:57;6.27;;;2.67;;
16866;SDS011;8550;52.596;13.320;2022-09-28T20:19:59;6.68;;;3.20;;
16866;SDS011;8550;52.596;13.320;2022-09-28T20:25:03;7.60;;;3.78;;
16866;SDS011;8550;52.596;13.320;2022-09-28T20:30:05;6.30;;;3.40;;
16866;SDS011;8550;52.596;13.320;2022-09-28T20:35:09;5.90;;;3.15;;
16866;SDS011;8550;52.596;13.320;2022-09-28T20:40:13;6.55;;;2.88;;
16866;SDS011;8550;52.596;13.320;2022-09-28T20:45:15;5.93;;;3.07;;
16866;SDS011;8550;52.596;13.320;2022-09-28T20:50:17;5.53;;;2.40;;
16866;SDS011;8550;52.596;13.320;2022-09-28T20:55:20;5.95;;;2.40;;
16866;SDS011;8550;52.596;13.320;2022-09-28T21:00:22;6.40;;;2.97;;
16866;SDS011;8550;52.596;13.320;2022-09-28T21:05:24;8.47;;;2.60;;
16866;SDS011;8550;52.596;13.320;2022-09-28T21:10:27;3.53;;;1.55;;
16866;SDS011;8550;52.596;13.320;2022-09-28T21:15:29;3.80;;;1.55;;
16866;SDS011;8550;52.596;13.320;2022-09-28T21:20:31;4.50;;;1.63;;
16866;SDS011;8550;52.596;13.320;2022-09-28T21:25:35;4.05;;;1.60;;
16866;SDS011;8550;52.596;13.320;2022-09-28T21:30:38;4.65;;;2.13;;
16866;SDS011;8550;52.596;13.320;2022-09-28T21:35:43;4.10;;;1.70;;
16866;SDS011;8550;52.596;13.320;2022-09-28T21:40:47;3.55;;;1.50;;
16866;SDS011;8550;52.596;13.320;2022-09-28T21:45:56;4.18;;;1.77;;
16866;SDS011;8550;52.596;13.320;2022-09-28T21:51:00;4.10;;;1.40;;
16866;SDS011;8550;52.596;13.320;2022-09-28T21:56:06;4.67;;;1.50;;
16866;SDS011;8550;52.596;13.320;2022-09-28T22:01:12;6.93;;;1.88;;
16866;SDS011;8550;52.596;13.320;2022-09-28T22:06:23;4.55;;;1.42;;
16866;SDS011;8550;52.596;13.320;2022-09-28T22:11:29;5.13;;;1.80;;
16866;SDS011;8550;52.596;13.320;2022-09-28T22:16:32;5.95;;;1.75;;
16866;SDS011;8550;52.596;13.320;2022-09-28T22:21:34;5.18;;;1.83;;
16866;SDS011;8550;52.596;13.320;2022-09-28T22:26:47;5.33;;;1.77;;
16866;SDS011;8550;52.596;13.320;2022-09-28T22:31:50;5.55;;;1.88;;
16866;SDS011;8550;52.596;13.320;2022-09-28T22:36:53;5.13;;;1.95;;
16866;SDS011;8550;52.596;13.320;2022-09-28T22:42:02;5.90;;;1.87;;
16866;SDS011;8550;52.596;13.320;2022-09-28T22:47:05;5.73;;;2.10;;
16866;SDS011;8550;52.596;13.320;2022-09-28T22:52:13;4.78;;;1.98;;
16866;SDS011;8550;52.596;13.320;2022-09-28T22:57:23;3.97;;;1.80;;
16866;SDS011;8550;52.596;13.320;2022-09-28T23:02:34;5.67;;;2.13;;
16866;SDS011;8550;52.596;13.320;2022-09-28T23:12:50;5.05;;;1.77;;
16866;SDS011;8550;52.596;13.320;2022-09-28T23:17:57;7.97;;;2.40;;
16866;SDS011;8550;52.596;13.320;2022-09-28T23:22:59;5.15;;;1.92;;
16866;SDS011;8550;52.596;13.320;2022-09-28T23:28:03;5.07;;;2.33;;
16866;SDS011;8550;52.596;13.320;2022-09-28T23:33:13;5.70;;;2.50;;
16866;SDS011;8550;52.596;13.320;2022-09-28T23:38:17;6.70;;;2.70;;
16866;SDS011;8550;52.596;13.320;2022-09-28T23:43:20;6.50;;;2.83;;
16866;SDS011;8550;52.596;13.320;2022-09-28T23:48:23;7.07;;;2.58;;
16866;SDS011;8550;52.596;13.320;2022-09-28T23:53:26;6.13;;;2.50;;
16866;SDS011;8550;52.596;13.320;2022-09-28T23:58:29;8.35;;;2.60;;
